createdAt,value
2019-03-16T00:00:45.838Z,10.80
2019-03-16T00:03:15.295Z,8.80
2019-03-16T00:05:44.238Z,6.40
2019-03-16T00:08:13.001Z,8.63
2019-03-16T00:10:42.084Z,9.90
2019-03-16T00:13:10.738Z,9.30
2019-03-16T00:15:39.378Z,7.90
2019-03-16T00:18:08.066Z,8.43
2019-03-16T00:20:36.950Z,5.17
2019-03-16T00:23:05.912Z,6.83
2019-03-16T00:25:34.636Z,5.30
2019-03-16T00:28:03.416Z,4.43
2019-03-16T00:30:32.206Z,4.70
2019-03-16T00:33:02.374Z,2.97
2019-03-16T00:35:31.142Z,3.43
2019-03-16T00:37:59.822Z,3.13
2019-03-16T00:40:28.511Z,3.73
2019-03-16T00:42:57.510Z,3.30
2019-03-16T00:45:26.176Z,1.57
2019-03-16T00:47:54.793Z,5.83
2019-03-16T00:50:23.468Z,4.30
2019-03-16T00:52:52.204Z,5.50
2019-03-16T00:55:23.498Z,4.73
2019-03-16T00:57:52.328Z,5.60
2019-03-16T01:00:21.058Z,6.07
2019-03-16T01:02:49.712Z,2.77
2019-03-16T01:05:18.452Z,4.80
2019-03-16T01:07:47.101Z,4.67
2019-03-16T01:10:15.755Z,5.23
2019-03-16T01:12:44.367Z,4.77
2019-03-16T01:15:13.666Z,2.40
2019-03-16T01:17:42.275Z,4.10
2019-03-16T01:20:12.421Z,2.17
2019-03-16T01:22:41.169Z,3.67
2019-03-16T01:25:11.243Z,4.53
2019-03-16T01:27:40.136Z,2.53
2019-03-16T01:30:14.584Z,3.17
2019-03-16T01:32:43.280Z,4.93
2019-03-16T01:35:11.998Z,4.77
2019-03-16T01:37:45.297Z,8.67
2019-03-16T01:40:13.970Z,2.93
2019-03-16T01:42:42.587Z,6.43
2019-03-16T01:45:12.118Z,5.97
2019-03-16T01:47:40.798Z,6.30
2019-03-16T01:50:11.264Z,8.13
2019-03-16T01:52:39.963Z,5.70
2019-03-16T01:55:09.358Z,5.87
2019-03-16T01:57:38.221Z,8.53
2019-03-16T02:00:14.678Z,6.13
2019-03-16T02:02:54.226Z,6.33
2019-03-16T02:05:14.022Z,7.97
2019-03-16T02:07:42.687Z,6.50
2019-03-16T02:10:11.422Z,3.50
2019-03-16T02:12:40.085Z,5.93
2019-03-16T02:15:09.309Z,6.73
2019-03-16T02:17:37.940Z,8.63
2019-03-16T02:20:10.287Z,6.30
2019-03-16T02:22:39.013Z,8.70
2019-03-16T02:25:08.899Z,4.50
2019-03-16T02:27:37.691Z,8.00
2019-03-16T02:30:08.847Z,7.20
2019-03-16T02:32:37.527Z,6.53
2019-03-16T02:35:07.752Z,7.87
2019-03-16T02:37:36.438Z,3.97
2019-03-16T02:40:07.100Z,6.93
2019-03-16T02:42:35.733Z,3.10
2019-03-16T02:45:06.349Z,7.10
2019-03-16T02:47:34.960Z,5.60
2019-03-16T02:50:05.632Z,6.87
2019-03-16T02:52:34.457Z,5.03
2019-03-16T02:55:03.514Z,6.50
2019-03-16T02:57:32.150Z,7.33
2019-03-16T03:00:00.785Z,12.13
2019-03-16T03:02:29.386Z,5.53
2019-03-16T03:04:58.004Z,5.77
2019-03-16T03:07:26.607Z,7.17
2019-03-16T03:09:55.197Z,8.33
2019-03-16T03:12:23.877Z,8.40
2019-03-16T03:14:52.607Z,5.17
2019-03-16T03:17:21.372Z,6.07
2019-03-16T03:19:50.051Z,4.77
2019-03-16T03:22:18.781Z,8.37
2019-03-16T03:24:47.423Z,6.60
2019-03-16T03:27:16.010Z,5.80
2019-03-16T03:29:44.577Z,6.33
2019-03-16T03:32:13.280Z,11.80
2019-03-16T03:34:41.906Z,10.87
2019-03-16T03:37:10.557Z,7.73
2019-03-16T03:39:39.140Z,7.27
2019-03-16T03:42:07.942Z,5.77
2019-03-16T03:44:36.580Z,3.63
2019-03-16T03:47:05.271Z,11.20
2019-03-16T03:49:33.839Z,6.93
2019-03-16T03:52:02.495Z,4.10
2019-03-16T03:54:31.082Z,7.07
2019-03-16T03:56:59.746Z,10.47
2019-03-16T03:59:28.487Z,11.43
2019-03-16T04:01:57.133Z,10.03
2019-03-16T04:04:25.851Z,10.27
2019-03-16T04:06:54.589Z,2.87
2019-03-16T04:09:23.259Z,5.10
2019-03-16T04:11:52.211Z,4.90
2019-03-16T04:14:20.979Z,4.90
2019-03-16T04:16:49.721Z,5.17
2019-03-16T04:19:18.352Z,8.47
2019-03-16T04:21:46.959Z,8.83
2019-03-16T04:24:15.698Z,4.40
2019-03-16T04:26:44.382Z,7.27
2019-03-16T04:29:13.019Z,7.27
2019-03-16T04:31:41.659Z,6.33
2019-03-16T04:34:10.287Z,5.80
2019-03-16T04:36:39.199Z,5.97
2019-03-16T04:39:08.100Z,5.40
2019-03-16T04:41:36.783Z,4.00
2019-03-16T04:44:05.484Z,9.40
2019-03-16T04:46:34.210Z,4.13
2019-03-16T04:49:02.772Z,8.20
2019-03-16T04:51:31.397Z,8.27
2019-03-16T04:54:00.030Z,4.77
2019-03-16T04:56:28.835Z,3.63
2019-03-16T04:58:57.574Z,10.73
2019-03-16T05:01:26.232Z,7.33
2019-03-16T05:03:54.848Z,5.03
2019-03-16T05:06:23.441Z,3.80
2019-03-16T05:08:52.140Z,3.07
2019-03-16T05:11:20.819Z,5.00
2019-03-16T05:13:49.525Z,3.93
2019-03-16T05:16:18.226Z,4.57
2019-03-16T05:18:46.823Z,7.90
2019-03-16T05:21:15.471Z,4.87
2019-03-16T05:23:44.180Z,2.43
2019-03-16T05:26:12.785Z,5.00
2019-03-16T05:28:41.804Z,11.40
2019-03-16T05:31:10.377Z,8.43
2019-03-16T05:33:39.099Z,4.70
2019-03-16T05:36:07.734Z,6.00
2019-03-16T05:38:36.711Z,4.53
2019-03-16T05:41:05.459Z,7.70
2019-03-16T05:43:34.362Z,10.00
2019-03-16T05:46:03.030Z,3.30
2019-03-16T05:48:31.668Z,3.20
2019-03-16T05:51:00.270Z,5.23
2019-03-16T05:53:29.134Z,6.40
2019-03-16T05:55:57.769Z,6.73
2019-03-16T05:58:26.481Z,6.27
2019-03-16T06:00:55.095Z,6.37
2019-03-16T06:03:23.766Z,4.07
2019-03-16T06:05:52.521Z,7.87
2019-03-16T06:08:21.127Z,3.03
2019-03-16T06:10:49.776Z,2.17
2019-03-16T06:13:18.356Z,4.17
2019-03-16T06:15:46.992Z,3.70
2019-03-16T06:18:18.642Z,6.83
2019-03-16T06:20:47.328Z,5.97
2019-03-16T06:23:16.043Z,4.67
2019-03-16T06:25:44.748Z,5.80
2019-03-16T06:28:16.748Z,6.60
2019-03-16T06:30:45.379Z,7.60
2019-03-16T06:33:14.270Z,9.63
2019-03-16T06:35:42.975Z,6.53
2019-03-16T06:38:11.512Z,4.60
2019-03-16T06:40:40.234Z,6.50
2019-03-16T06:43:10.693Z,11.57
2019-03-16T06:45:39.381Z,6.03
2019-03-16T06:48:08.484Z,8.47
2019-03-16T06:50:37.154Z,7.17
2019-03-16T06:53:05.814Z,8.07
2019-03-16T06:55:34.444Z,7.50
2019-03-16T06:58:03.288Z,5.37
2019-03-16T07:00:31.850Z,5.57
2019-03-16T07:03:00.416Z,8.00
2019-03-16T07:05:38.306Z,4.40
2019-03-16T07:07:59.530Z,5.10
2019-03-16T07:10:28.122Z,8.37
2019-03-16T07:12:56.817Z,7.07
2019-03-16T07:15:25.737Z,9.40
2019-03-16T07:17:54.290Z,10.20
2019-03-16T07:20:23.003Z,4.83
2019-03-16T07:22:51.590Z,8.43
2019-03-16T07:25:20.378Z,7.23
2019-03-16T07:27:49.142Z,6.87
2019-03-16T07:30:20.596Z,9.67
2019-03-16T07:32:49.302Z,6.90
2019-03-16T07:35:18.074Z,6.67
2019-03-16T07:37:46.734Z,7.77
2019-03-16T07:40:15.517Z,5.77
2019-03-16T07:42:44.304Z,4.07
2019-03-16T07:45:13.578Z,5.33
2019-03-16T07:47:42.242Z,7.80
2019-03-16T07:50:14.102Z,7.67
2019-03-16T07:52:46.082Z,7.07
2019-03-16T07:55:14.754Z,6.17
2019-03-16T07:57:43.428Z,6.07
2019-03-16T08:00:13.070Z,4.80
2019-03-16T08:02:41.758Z,4.83
2019-03-16T08:05:18.286Z,4.33
2019-03-16T08:07:41.994Z,4.20
2019-03-16T08:10:11.580Z,4.40
2019-03-16T08:12:41.501Z,2.20
2019-03-16T08:15:11.209Z,2.67
2019-03-16T08:17:47.285Z,3.80
2019-03-16T08:20:16.376Z,3.23
2019-03-16T08:22:45.056Z,3.90
2019-03-16T08:25:16.833Z,2.40
2019-03-16T08:27:54.602Z,2.60
2019-03-16T08:30:19.616Z,5.37
2019-03-16T08:32:48.268Z,2.83
2019-03-16T08:35:17.444Z,6.73
2019-03-16T08:37:46.084Z,5.17
2019-03-16T08:40:15.112Z,4.53
2019-03-16T08:42:51.631Z,6.83
2019-03-16T08:45:20.578Z,5.70
2019-03-16T08:47:49.301Z,6.17
2019-03-16T08:50:17.953Z,5.17
2019-03-16T08:52:46.676Z,4.03
2019-03-16T08:55:15.309Z,5.40
2019-03-16T08:57:44.001Z,4.73
2019-03-16T09:00:15.869Z,6.03
2019-03-16T09:02:45.124Z,6.27
2019-03-16T09:05:20.168Z,7.73
2019-03-16T09:07:48.804Z,7.13
2019-03-16T09:10:20.345Z,7.27
2019-03-16T09:12:54.978Z,7.40
2019-03-16T09:15:19.356Z,5.43
2019-03-16T09:18:03.402Z,6.47
2019-03-16T09:20:32.117Z,7.93
2019-03-16T09:23:00.698Z,6.17
2019-03-16T09:25:29.301Z,7.97
2019-03-16T09:27:58.004Z,5.03
2019-03-16T09:30:26.665Z,6.00
2019-03-16T09:32:55.267Z,9.43
2019-03-16T09:35:24.052Z,5.40
2019-03-16T09:37:52.816Z,4.80
2019-03-16T09:40:21.603Z,5.30
2019-03-16T09:42:50.208Z,4.57
2019-03-16T09:45:18.856Z,4.57
2019-03-16T09:47:47.441Z,5.03
2019-03-16T09:50:16.126Z,5.43
2019-03-16T09:52:44.805Z,4.13
2019-03-16T09:55:13.936Z,5.83
2019-03-16T09:57:42.522Z,5.23
2019-03-16T10:00:15.909Z,5.27
2019-03-16T10:02:44.618Z,7.20
2019-03-16T10:05:13.590Z,7.90
2019-03-16T10:07:42.189Z,4.10
2019-03-16T10:10:15.753Z,7.73
2019-03-16T10:12:44.379Z,5.70
2019-03-16T10:15:15.808Z,5.23
2019-03-16T10:17:44.373Z,5.57
2019-03-16T10:20:14.298Z,3.00
2019-03-16T10:22:42.946Z,4.00
2019-03-16T10:25:11.736Z,5.53
2019-03-16T10:27:40.446Z,3.47
2019-03-16T10:30:14.382Z,6.00
2019-03-16T10:32:43.209Z,4.53
2019-03-16T10:35:11.965Z,3.97
2019-03-16T10:37:40.593Z,4.67
2019-03-16T10:40:13.462Z,7.90
2019-03-16T10:42:42.245Z,5.13
2019-03-16T10:45:11.980Z,6.57
2019-03-16T10:47:40.801Z,3.03
2019-03-16T10:50:12.483Z,4.17
2019-03-16T10:52:41.109Z,5.33
2019-03-16T10:55:09.971Z,4.70
2019-03-16T10:57:38.689Z,3.77
2019-03-16T11:00:13.399Z,7.23
2019-03-16T11:02:42.022Z,4.80
2019-03-16T11:05:10.801Z,4.57
2019-03-16T11:07:39.422Z,5.43
2019-03-16T11:10:10.423Z,3.30
2019-03-16T11:12:39.082Z,8.10
2019-03-16T11:15:15.805Z,7.23
2019-03-16T11:17:44.431Z,7.43
2019-03-16T11:20:17.809Z,8.00
2019-03-16T11:22:46.515Z,3.43
2019-03-16T11:25:15.104Z,4.30
2019-03-16T11:27:43.781Z,10.30
2019-03-16T11:30:17.221Z,6.30
2019-03-16T11:32:58.965Z,5.93
2019-03-16T11:35:27.650Z,5.03
2019-03-16T11:37:56.373Z,8.47
2019-03-16T11:40:25.232Z,3.67
2019-03-16T11:42:53.893Z,6.07
2019-03-16T11:45:22.557Z,5.70
2019-03-16T11:47:51.334Z,3.30
2019-03-16T11:50:20.221Z,4.20
2019-03-16T11:52:49.002Z,6.60
2019-03-16T11:55:17.712Z,4.50
2019-03-16T11:57:46.570Z,8.13
2019-03-16T12:00:15.972Z,4.87
2019-03-16T12:02:44.971Z,2.43
2019-03-16T12:05:13.576Z,3.37
2019-03-16T12:07:42.291Z,5.77
2019-03-16T12:10:13.340Z,5.20
2019-03-16T12:12:42.174Z,5.10
2019-03-16T12:15:12.190Z,6.57
2019-03-16T12:17:40.903Z,3.27
2019-03-16T12:20:13.817Z,2.63
2019-03-16T12:22:42.766Z,4.17
2019-03-16T12:25:11.497Z,5.00
2019-03-16T12:27:40.204Z,6.27
2019-03-16T12:30:16.198Z,7.70
2019-03-16T12:32:44.919Z,9.33
2019-03-16T12:35:13.701Z,6.53
2019-03-16T12:37:42.303Z,5.73
2019-03-16T12:40:13.229Z,4.13
2019-03-16T12:42:41.901Z,4.00
2019-03-16T12:45:15.226Z,7.60
2019-03-16T12:47:43.880Z,8.20
2019-03-16T12:53:00.964Z,4.40
2019-03-16T12:55:29.799Z,6.30
2019-03-16T12:57:58.391Z,4.40
2019-03-16T13:00:27.081Z,4.73
2019-03-16T13:02:55.735Z,8.13
2019-03-16T13:05:24.377Z,4.17
2019-03-16T13:07:53.006Z,3.87
2019-03-16T13:10:21.576Z,4.83
2019-03-16T13:12:50.273Z,7.70
2019-03-16T13:15:18.994Z,7.13
2019-03-16T13:17:47.673Z,5.07
2019-03-16T13:20:17.217Z,6.57
2019-03-16T13:22:45.788Z,6.23
2019-03-16T13:25:19.094Z,9.77
2019-03-16T13:27:47.780Z,11.70
2019-03-16T13:30:18.725Z,6.10
2019-03-16T13:32:47.515Z,3.67
2019-03-16T13:35:16.257Z,6.10
2019-03-16T13:37:44.925Z,5.23
2019-03-16T13:40:15.200Z,3.20
2019-03-16T13:42:43.893Z,5.63
2019-03-16T13:45:12.617Z,7.57
2019-03-16T13:47:41.518Z,5.30
2019-03-16T13:50:18.142Z,9.47
2019-03-16T13:52:47.361Z,7.40
2019-03-16T13:55:16.050Z,10.23
2019-03-16T13:57:44.756Z,8.80
2019-03-16T14:00:20.910Z,7.00
2019-03-16T14:02:49.564Z,6.03
2019-03-16T14:05:18.330Z,11.90
2019-03-16T14:07:46.976Z,11.83
2019-03-16T14:10:21.004Z,7.70
2019-03-16T14:12:49.762Z,8.60
2019-03-16T14:15:18.436Z,5.83
2019-03-16T14:17:47.110Z,8.87
2019-03-16T14:20:16.488Z,12.00
2019-03-16T14:22:45.064Z,9.40
2019-03-16T14:25:13.749Z,7.70
2019-03-16T14:27:42.452Z,9.37
2019-03-16T14:30:34.783Z,13.97
2019-03-16T14:32:45.860Z,10.83
2019-03-16T14:35:16.165Z,10.97
2019-03-16T14:37:44.873Z,12.87
2019-03-16T14:40:14.850Z,9.40
2019-03-16T14:42:43.591Z,5.33
2019-03-16T14:45:13.873Z,8.83
2019-03-16T14:47:42.590Z,11.03
2019-03-16T14:50:16.854Z,7.37
2019-03-16T14:52:45.428Z,8.93
2019-03-16T14:55:14.464Z,7.23
2019-03-16T14:57:43.063Z,8.00
2019-03-16T15:00:14.444Z,9.00
2019-03-16T15:02:46.559Z,9.43
2019-03-16T15:05:13.430Z,8.53
2019-03-16T15:07:42.243Z,9.80
2019-03-16T15:10:16.331Z,10.10
2019-03-16T15:12:45.178Z,8.03
2019-03-16T15:15:18.519Z,10.03
2019-03-16T15:17:47.105Z,10.67
2019-03-16T15:20:15.860Z,15.60
2019-03-16T15:22:44.537Z,10.97
2019-03-16T15:25:13.841Z,10.90
2019-03-16T15:27:42.535Z,11.03
2019-03-16T15:30:16.038Z,15.00
2019-03-16T15:32:44.613Z,9.33
2019-03-16T15:35:13.475Z,13.23
2019-03-16T15:37:58.546Z,14.97
2019-03-16T15:40:27.198Z,12.07
2019-03-16T15:42:55.777Z,18.30
2019-03-16T15:45:26.931Z,12.27
2019-03-16T15:47:55.745Z,8.23
2019-03-16T15:50:24.480Z,13.60
2019-03-16T15:52:53.238Z,18.83
2019-03-16T15:55:22.137Z,12.43
2019-03-16T15:57:51.131Z,19.10
2019-03-16T16:00:20.485Z,9.23
2019-03-16T16:02:50.730Z,17.40
2019-03-16T16:05:19.532Z,20.40
2019-03-16T16:07:48.203Z,13.03
2019-03-16T16:10:19.839Z,14.53
2019-03-16T16:12:48.521Z,16.60
2019-03-16T16:15:17.618Z,16.03
2019-03-16T16:17:46.319Z,19.23
2019-03-16T16:20:23.711Z,18.23
2019-03-16T16:22:52.527Z,21.03
2019-03-16T16:25:21.205Z,18.83
2019-03-16T16:27:50.039Z,22.83
2019-03-16T16:30:21.003Z,17.80
2019-03-16T16:32:52.091Z,22.77
2019-03-16T16:35:20.331Z,26.07
2019-03-16T16:37:49.319Z,25.27
2019-03-16T16:40:23.034Z,22.93
2019-03-16T16:42:53.195Z,23.87
2019-03-16T16:45:21.762Z,21.80
2019-03-16T16:47:50.467Z,22.10
2019-03-16T16:50:24.429Z,19.17
2019-03-16T16:52:53.243Z,22.73
2019-03-16T16:55:21.937Z,13.47
2019-03-16T16:57:50.931Z,22.80
2019-03-16T17:00:24.661Z,18.67
2019-03-16T17:02:53.395Z,23.50
2019-03-16T17:05:22.053Z,14.87
2019-03-16T17:07:50.820Z,18.17
2019-03-16T17:10:19.659Z,19.27
2019-03-16T17:12:48.822Z,20.37
2019-03-16T17:15:19.051Z,19.17
2019-03-16T17:17:50.656Z,22.30
2019-03-16T17:20:19.361Z,16.90
2019-03-16T17:23:01.688Z,18.10
2019-03-16T17:25:30.326Z,14.63
2019-03-16T17:28:01.315Z,17.40
2019-03-16T17:30:32.617Z,18.93
2019-03-16T17:33:01.142Z,15.20
2019-03-16T17:35:29.901Z,19.63
2019-03-16T17:37:58.521Z,19.10
2019-03-16T17:40:27.290Z,19.43
2019-03-16T17:42:56.067Z,19.83
2019-03-16T17:45:24.665Z,16.23
2019-03-16T17:47:53.235Z,19.17
2019-03-16T17:50:22.008Z,16.90
2019-03-16T17:52:50.631Z,12.37
2019-03-16T17:55:19.710Z,14.13
2019-03-16T17:57:48.838Z,16.77
2019-03-16T18:00:18.342Z,16.87
2019-03-16T18:02:51.693Z,15.67
2019-03-16T18:05:17.782Z,19.67
2019-03-16T18:07:47.173Z,19.67
2019-03-16T18:10:16.201Z,17.23
2019-03-16T18:12:44.890Z,22.07
2019-03-16T18:15:15.791Z,16.13
2019-03-16T18:17:44.444Z,23.07
2019-03-16T18:20:19.331Z,18.47
2019-03-16T18:22:48.410Z,16.83
2019-03-16T18:25:17.593Z,19.83
2019-03-16T18:27:47.789Z,19.00
2019-03-16T18:30:20.589Z,21.27
2019-03-16T18:32:49.306Z,20.00
2019-03-16T18:35:18.078Z,22.70
2019-03-16T18:37:56.801Z,17.77
2019-03-16T18:40:25.549Z,21.70
2019-03-16T18:42:54.278Z,24.00
2019-03-16T18:45:25.422Z,21.17
2019-03-16T18:47:54.076Z,23.23
2019-03-16T18:50:22.740Z,25.13
2019-03-16T18:52:51.453Z,24.07
2019-03-16T18:55:20.187Z,18.37
2019-03-16T18:57:48.808Z,19.10
2019-03-16T19:00:18.412Z,23.13
2019-03-16T19:02:47.276Z,17.10
2019-03-16T19:05:19.089Z,23.80
2019-03-16T19:07:47.571Z,21.20
2019-03-16T19:10:18.310Z,22.63
2019-03-16T19:12:47.096Z,19.40
2019-03-16T19:15:16.950Z,23.57
2019-03-16T19:17:58.133Z,19.53
2019-03-16T19:20:17.080Z,18.67
2019-03-16T19:22:45.949Z,18.83
2019-03-16T19:25:22.290Z,31.87
2019-03-16T19:27:50.964Z,25.23
2019-03-16T19:30:22.523Z,18.53
2019-03-16T19:32:51.401Z,21.47
2019-03-16T19:35:20.091Z,27.43
2019-03-16T19:37:48.776Z,20.93
2019-03-16T19:40:21.742Z,24.03
2019-03-16T19:42:50.493Z,29.30
2019-03-16T19:45:19.292Z,25.63
2019-03-16T19:47:47.955Z,28.73
2019-03-16T19:50:19.634Z,26.20
2019-03-16T19:52:48.221Z,31.40
2019-03-16T19:55:16.999Z,32.07
2019-03-16T19:57:45.589Z,28.53
2019-03-16T20:00:18.075Z,27.17
2019-03-16T20:02:51.017Z,30.60
2019-03-16T20:05:17.115Z,33.00
2019-03-16T20:07:45.845Z,26.43
2019-03-16T20:10:26.142Z,31.50
2019-03-16T20:12:54.943Z,33.27
2019-03-16T20:15:23.830Z,25.70
2019-03-16T20:20:56.800Z,28.90
2019-03-16T20:23:25.602Z,25.80
2019-03-16T20:25:55.974Z,22.00
2019-03-16T20:28:24.723Z,31.90
2019-03-16T20:30:53.536Z,34.07
2019-03-16T20:33:22.421Z,33.67
2019-03-16T20:35:51.148Z,33.33
2019-03-16T20:38:20.030Z,31.10
2019-03-16T20:40:50.575Z,29.93
2019-03-16T20:43:19.179Z,28.13
2019-03-16T20:45:48.188Z,30.43
2019-03-16T20:48:16.957Z,30.87
2019-03-16T20:50:45.800Z,28.50
2019-03-16T20:53:14.582Z,25.57
2019-03-16T20:55:43.489Z,30.10
2019-03-16T20:58:12.192Z,29.37
2019-03-16T21:00:41.855Z,30.10
2019-03-16T21:03:15.898Z,28.93
2019-03-16T21:05:41.365Z,27.10
2019-03-16T21:08:10.116Z,28.87
2019-03-16T21:10:41.717Z,26.90
2019-03-16T21:13:10.429Z,34.40
2019-03-16T21:15:39.089Z,28.63
2019-03-16T21:18:10.801Z,30.20
2019-03-16T21:20:39.602Z,30.53
2019-03-16T21:23:09.077Z,26.37
2019-03-16T21:25:37.924Z,30.60
2019-03-16T21:28:06.772Z,34.13
2019-03-16T21:30:35.400Z,28.00
2019-03-16T21:33:04.115Z,33.40
2019-03-16T21:35:32.815Z,30.17
2019-03-16T21:38:01.596Z,36.03
2019-03-16T21:40:30.364Z,30.50
2019-03-16T21:43:02.646Z,34.50
2019-03-16T21:45:37.443Z,30.60
2019-03-16T21:48:06.071Z,30.63
2019-03-16T21:50:34.758Z,33.83
2019-03-16T21:53:07.223Z,36.43
2019-03-16T21:55:35.953Z,32.57
2019-03-16T21:58:04.642Z,34.00
2019-03-16T22:00:33.916Z,35.90
2019-03-16T22:03:02.840Z,43.23
2019-03-16T22:05:31.662Z,33.07
2019-03-16T22:08:00.437Z,34.87
2019-03-16T22:10:29.171Z,33.70
2019-03-16T22:12:57.907Z,34.87
2019-03-16T22:15:26.591Z,32.30
2019-03-16T22:17:55.284Z,35.03
2019-03-16T22:20:24.042Z,36.17
2019-03-16T22:23:00.870Z,34.03
2019-03-16T22:25:29.555Z,35.37
2019-03-16T22:27:58.340Z,33.33
2019-03-16T22:30:27.146Z,41.07
2019-03-16T22:32:55.922Z,34.77
2019-03-16T22:35:24.664Z,33.17
2019-03-16T22:37:53.466Z,32.47
2019-03-16T22:40:22.182Z,37.17
2019-03-16T22:42:50.974Z,38.57
2019-03-16T22:45:19.849Z,37.23
2019-03-16T22:47:48.470Z,35.27
2019-03-16T22:50:20.361Z,44.00
2019-03-16T22:52:49.074Z,38.97
2019-03-16T22:55:18.014Z,49.33
2019-03-16T22:57:46.790Z,48.77
2019-03-16T23:00:21.893Z,43.93
2019-03-16T23:02:50.634Z,34.57
2019-03-16T23:05:19.587Z,39.63
2019-03-16T23:07:58.334Z,42.13
2019-03-16T23:10:27.070Z,43.43
2019-03-16T23:13:05.108Z,40.43
2019-03-16T23:15:33.816Z,37.77
2019-03-16T23:18:02.632Z,38.87
2019-03-16T23:20:37.304Z,41.13
2019-03-16T23:23:05.990Z,38.60
2019-03-16T23:25:34.744Z,36.30
2019-03-16T23:28:09.500Z,44.10
2019-03-16T23:30:38.483Z,41.33
2019-03-16T23:33:07.369Z,45.47
2019-03-16T23:35:36.187Z,40.43
2019-03-16T23:38:05.943Z,45.30
2019-03-16T23:40:34.720Z,41.93
2019-03-16T23:43:05.712Z,35.07
2019-03-16T23:45:34.499Z,38.83
2019-03-16T23:48:03.081Z,34.50
2019-03-16T23:50:31.803Z,42.20
2019-03-16T23:53:00.569Z,36.27
2019-03-16T23:55:29.240Z,31.90
2019-03-16T23:57:58.216Z,34.23
